Time;durP1;ratioP1;P1;durP2;ratioP2;P2;SDS_P1;SDS_P2;PMS_P1;PMS_P2;Temp;Humidity;BMP_temperature;BMP_pressure;BME280_temperature;BME280_humidity;BME280_pressure;Samples;Min_cycle;Max_cycle;Signal;HPM_P1;HPM_P2
2022/10/28 00:00:17;;;;;;;17.50;9.30;;;;;;;5.96;65.18;100710.66;6055366;23;20014;-80
2022/10/28 00:02:43;;;;;;;22.48;9.57;;;;;;;5.89;64.88;100701.84;6077689;23;20029;-79
2022/10/28 00:05:09;;;;;;;21.10;10.43;;;;;;;5.91;65.63;100715.69;6099983;23;20018;-79
2022/10/28 00:07:35;;;;;;;23.15;9.13;;;;;;;5.91;65.54;100717.41;6050660;23;20021;-80
2022/10/28 00:10:02;;;;;;;21.70;10.07;;;;;;;5.70;64.75;100705.72;6109970;23;20013;-80
2022/10/28 00:12:28;;;;;;;20.58;9.45;;;;;;;5.67;65.35;100703.91;6064489;23;20038;-79
2022/10/28 00:14:54;;;;;;;20.98;8.65;;;;;;;5.55;65.56;100688.09;6124114;23;20299;-79
2022/10/28 00:17:20;;;;;;;20.08;8.85;;;;;;;5.60;65.76;100695.97;6071266;23;20018;-80
2022/10/28 00:19:46;;;;;;;16.73;8.32;;;;;;;5.43;66.09;100668.00;6077575;23;20050;-79
2022/10/28 00:22:13;;;;;;;21.98;9.55;;;;;;;5.68;65.58;100709.94;6102442;23;20485;-80
2022/10/28 00:24:39;;;;;;;18.38;9.65;;;;;;;5.75;66.34;100713.56;6055681;23;20022;-79
2022/10/28 00:27:05;;;;;;;24.15;10.07;;;;;;;5.80;65.70;100714.56;6057250;23;20029;-81
2022/10/28 00:29:31;;;;;;;20.05;8.57;;;;;;;5.88;66.75;100720.78;6049553;23;20465;-81
2022/10/28 00:31:57;;;;;;;17.98;10.05;;;;;;;5.95;65.45;100714.06;6072237;23;20026;-80
2022/10/28 00:34:22;;;;;;;19.77;9.57;;;;;;;5.93;65.52;100716.59;6098564;23;20018;-81
2022/10/28 00:36:48;;;;;;;21.88;9.13;;;;;;;5.63;65.61;100672.81;6072114;23;20019;-80
2022/10/28 00:39:20;;;;;;;18.55;8.90;;;;;;;5.89;66.12;100725.09;6098190;23;20102;-81
2022/10/28 00:41:52;;;;;;;19.75;9.40;;;;;;;5.74;65.86;100697.19;6072219;23;20022;-79
2022/10/28 00:44:44;;;;;;;20.33;8.55;;;;;;;5.85;66.06;100718.09;6072572;23;20018;-82
2022/10/28 00:47:36;;;;;;;20.48;8.65;;;;;;;5.77;65.36;100714.47;6098136;23;20022;-79
2022/10/28 00:50:15;;;;;;;15.70;8.05;;;;;;;5.71;66.12;100720.38;6072044;23;20106;-79
2022/10/28 00:52:45;;;;;;;14.27;7.05;;;;;;;5.54;65.98;100687.22;6097254;23;20022;-80
2022/10/28 00:55:14;;;;;;;14.13;6.32;;;;;;;5.61;65.87;100695.13;6097231;23;20015;-78
2022/10/28 00:57:41;;;;;;;14.10;6.57;;;;;;;5.58;65.68;100693.34;6097607;23;20022;-79
2022/10/28 01:00:08;;;;;;;14.60;6.10;;;;;;;5.55;66.18;100709.63;6097598;23;20464;-77
2022/10/28 01:02:46;;;;;;;11.43;5.93;;;;;;;5.43;66.03;100701.56;6100110;23;20460;-78
2022/10/28 01:05:17;;;;;;;11.32;5.63;;;;;;;5.47;66.32;100715.41;6052316;23;20018;-80
2022/10/28 01:07:44;;;;;;;12.00;5.63;;;;;;;5.43;66.19;100714.47;6050039;23;20018;-79
2022/10/28 01:10:11;;;;;;;11.45;5.82;;;;;;;5.39;65.80;100718.69;6072518;23;20081;-80
2022/10/28 01:12:43;;;;;;;12.02;5.88;;;;;;;5.36;66.79;100707.38;6071361;23;20365;-79
2022/10/28 01:15:40;;;;;;;13.63;5.93;;;;;;;5.28;65.91;100708.06;6096665;23;20519;-78
2022/10/28 01:18:29;;;;;;;17.08;6.35;;;;;;;5.30;66.14;100708.09;6071728;23;20018;-78
2022/10/28 01:21:20;;;;;;;15.27;6.05;;;;;;;5.22;65.78;100707.91;6072807;23;20029;-78
2022/10/28 01:24:01;;;;;;;13.65;5.55;;;;;;;5.22;66.52;100715.63;6071864;23;20018;-80
2022/10/28 01:26:57;;;;;;;16.13;7.28;;;;;;;5.29;66.98;100716.69;6071406;23;20018;-79
2022/10/28 01:29:46;;;;;;;12.68;6.03;;;;;;;5.35;66.74;100710.81;6096762;23;20029;-77
2022/10/28 01:32:46;;;;;;;15.07;5.80;;;;;;;5.40;67.10;100702.38;6097013;23;20480;-78
2022/10/28 01:35:29;;;;;;;14.50;6.55;;;;;;;5.44;66.70;100700.72;6072264;23;20122;-79
2022/10/28 01:38:01;;;;;;;16.38;6.03;;;;;;;5.45;66.67;100706.75;6097692;23;20453;-80
2022/10/28 01:40:42;;;;;;;;;;;;;;;5.44;66.87;100700.72;6048355;23;20018;-79
2022/10/28 01:43:08;;;;;;;12.32;5.72;;;;;;;5.50;66.97;100706.06;6097394;23;19967;-80
2022/10/28 01:46:10;;;;;;;14.55;6.32;;;;;;;5.46;66.90;100693.00;6096981;23;20014;-79
2022/10/28 01:48:47;;;;;;;13.40;6.05;;;;;;;5.50;66.57;100693.16;6017880;23;20025;-79
2022/10/28 01:51:36;;;;;;;16.10;6.38;;;;;;;5.67;67.05;100709.06;6096146;23;20018;-80
2022/10/28 01:54:06;;;;;;;14.90;5.95;;;;;;;5.54;66.72;100683.78;6096679;23;20100;-80
2022/10/28 01:56:37;;;;;;;13.38;6.22;;;;;;;5.49;66.91;100680.19;6095976;23;20015;-80
2022/10/28 01:59:08;;;;;;;13.98;5.88;;;;;;;5.69;66.66;100701.38;6047434;23;20153;-78
2022/10/28 02:01:35;;;;;;;15.77;6.25;;;;;;;5.53;65.97;100672.56;6096339;23;20774;-79
2022/10/28 02:04:02;;;;;;;18.55;7.00;;;;;;;5.66;66.64;100690.97;6096829;23;20018;-78
2022/10/28 02:06:31;;;;;;;20.08;8.40;;;;;;;5.68;66.70;100690.16;6096455;23;20046;-80
2022/10/28 02:09:18;;;;;;;18.25;6.55;;;;;;;5.68;66.66;100689.28;6071048;23;20022;-79
2022/10/28 02:11:56;;;;;;;16.05;6.38;;;;;;;5.67;66.83;100688.41;6063235;23;20058;-79
2022/10/28 02:14:50;;;;;;;15.93;7.07;;;;;;;5.73;66.55;100703.22;6052427;23;20045;-81
2022/10/28 02:17:19;;;;;;;18.75;6.85;;;;;;;5.78;66.90;100688.69;6073774;23;20022;-77
2022/10/28 02:19:51;;;;;;;14.43;6.07;;;;;;;5.80;66.87;100691.31;6108663;23;20052;-77
2022/10/28 02:22:20;;;;;;;;;;;;;;;5.76;66.38;100692.94;6056476;23;20014;-78
2022/10/28 02:24:58;;;;;;;13.05;6.22;;;;;;;5.75;66.68;100695.47;6048060;23;19944;-79
2022/10/28 02:27:41;;;;;;;14.32;6.50;;;;;;;5.68;66.51;100686.72;6096533;23;20105;-79
2022/10/28 02:30:12;;;;;;;14.57;6.63;;;;;;;5.75;66.43;100695.47;6097389;23;20093;-79
2022/10/28 02:32:43;;;;;;;13.40;6.35;;;;;;;5.64;66.01;100678.00;6053465;23;20028;-79
2022/10/28 02:35:18;;;;;;;13.60;6.33;;;;;;;5.81;66.73;100708.56;6112731;23;20464;-79
2022/10/28 02:37:47;;;;;;;15.25;6.47;;;;;;;5.81;66.51;100716.31;6103007;23;20243;-80
2022/10/28 02:40:20;;;;;;;15.30;6.88;;;;;;;5.84;66.58;100719.84;6070596;23;20129;-79
2022/10/28 02:42:51;;;;;;;13.93;6.20;;;;;;;5.80;66.25;100711.97;6072835;23;20040;-78
2022/10/28 02:45:22;;;;;;;14.77;6.63;;;;;;;5.93;66.65;100716.59;6098431;23;20070;-77
2022/10/28 02:47:55;;;;;;;11.25;5.80;;;;;;;6.00;66.71;100720.25;6046927;23;20019;-79
2022/10/28 02:50:29;;;;;;;11.82;6.18;;;;;;;5.94;66.22;100679.59;6070597;23;20018;-79
2022/10/28 02:52:59;;;;;;;14.98;6.28;;;;;;;6.03;66.39;100682.44;6096330;23;20022;-78
2022/10/28 02:55:33;;;;;;;13.57;6.03;;;;;;;6.11;66.09;100694.66;6070688;23;20026;-79
2022/10/28 02:58:00;;;;;;;13.30;7.05;;;;;;;6.14;66.19;100705.97;6071627;23;20022;-77
2022/10/28 03:00:27;;;;;;;13.65;6.28;;;;;;;6.03;66.43;100705.69;6070887;23;20074;-80
2022/10/28 03:02:53;;;;;;;13.90;6.47;;;;;;;5.91;66.58;100707.94;6096033;23;20361;-80
2022/10/28 03:05:19;;;;;;;14.25;6.43;;;;;;;5.91;65.93;100715.69;6071043;23;20074;-79
2022/10/28 03:07:45;;;;;;;15.05;6.63;;;;;;;5.70;66.29;100685.03;6096382;23;20535;-79
2022/10/28 03:10:11;;;;;;;14.82;7.05;;;;;;;5.79;66.40;100689.56;6070144;23;20023;-78
2022/10/28 03:12:37;;;;;;;14.18;7.20;;;;;;;5.81;66.42;100700.81;6096014;23;20074;-79
2022/10/28 03:15:04;;;;;;;15.20;7.35;;;;;;;5.82;66.35;100713.75;6070136;23;20014;-79
2022/10/28 03:17:30;;;;;;;14.10;7.15;;;;;;;5.42;66.29;100661.09;6046710;23;20018;-77
2022/10/28 03:19:56;;;;;;;13.65;5.97;;;;;;;5.58;66.65;100678.72;6070192;23;20354;-79
2022/10/28 03:22:22;;;;;;;15.68;6.90;;;;;;;5.66;66.55;100712.47;6070027;23;20223;-78
2022/10/28 03:24:48;;;;;;;13.52;7.10;;;;;;;5.55;66.70;100694.13;6069669;23;20022;-79
2022/10/28 03:27:13;;;;;;;14.30;6.90;;;;;;;5.67;67.11;100714.22;6070279;23;20018;-79
2022/10/28 03:29:39;;;;;;;16.50;7.57;;;;;;;5.64;66.65;100698.66;6046666;23;20053;-79
2022/10/28 03:32:06;;;;;;;13.10;6.28;;;;;;;5.69;67.30;100691.91;6072312;23;20356;-81
2022/10/28 03:34:32;;;;;;;13.30;6.63;;;;;;;5.72;66.56;100694.56;6099223;23;20025;-79
2022/10/28 03:36:57;;;;;;;15.65;6.22;;;;;;;5.72;66.57;100704.91;6053718;23;20014;-80
2022/10/28 03:39:23;;;;;;;15.15;7.10;;;;;;;5.76;66.92;100707.56;6082498;23;20034;-81
2022/10/28 03:41:52;;;;;;;17.52;7.43;;;;;;;5.75;67.32;100700.66;6110464;23;20080;-80
2022/10/28 03:44:27;;;;;;;13.05;6.72;;;;;;;5.70;67.21;100678.16;6080199;23;20022;-78
2022/10/28 03:46:52;;;;;;;18.88;7.43;;;;;;;5.83;67.63;100688.81;6047227;23;20014;-80
2022/10/28 03:49:21;;;;;;;12.52;6.35;;;;;;;5.83;67.18;100679.34;6070641;23;20074;-79
2022/10/28 03:51:47;;;;;;;14.48;7.25;;;;;;;5.76;67.59;100672.25;6071338;23;20520;-80
2022/10/28 03:54:16;;;;;;;16.00;6.43;;;;;;;5.89;67.18;100694.09;6070202;23;20045;-80
2022/10/28 03:56:42;;;;;;;18.50;7.93;;;;;;;5.73;67.23;100667.06;6023118;23;20022;-80
2022/10/28 03:59:11;;;;;;;13.77;6.80;;;;;;;5.90;67.50;100693.28;6070775;23;20040;-79
2022/10/28 04:01:47;;;;;;;15.43;6.90;;;;;;;5.67;67.63;100644.50;6097790;23;20018;-80
2022/10/28 04:04:13;;;;;;;13.02;6.47;;;;;;;5.86;67.64;100674.25;6047757;23;20472;-78
2022/10/28 04:06:39;;;;;;;13.77;6.97;;;;;;;5.82;66.96;100671.56;6098919;23;20379;-80
2022/10/28 04:09:05;;;;;;;15.23;7.13;;;;;;;5.84;67.46;100662.16;6075051;23;20037;-80
2022/10/28 04:11:31;;;;;;;15.52;7.40;;;;;;;5.95;67.11;100681.34;6073911;23;20018;-80
2022/10/28 04:13:57;;;;;;;15.45;7.25;;;;;;;5.85;67.44;100654.41;6071563;23;20063;-79
2022/10/28 04:16:24;;;;;;;13.15;6.72;;;;;;;5.96;67.50;100659.84;6074058;23;20026;-80
2022/10/28 04:18:50;;;;;;;13.63;6.63;;;;;;;6.19;67.45;100682.78;6056718;23;20081;-78
2022/10/28 04:21:16;;;;;;;13.93;7.00;;;;;;;6.23;67.26;100678.56;6103076;23;20086;-79
2022/10/28 04:23:42;;;;;;;12.68;6.50;;;;;;;6.14;67.33;100672.38;6049967;23;20070;-78
2022/10/28 04:26:10;;;;;;;16.95;7.22;;;;;;;6.18;67.08;100678.47;6074692;23;20018;-78
2022/10/28 04:28:36;;;;;;;14.82;6.97;;;;;;;6.16;67.10;100674.97;6078028;23;20018;-78
2022/10/28 04:31:02;;;;;;;13.35;6.82;;;;;;;6.17;67.52;100681.88;6030495;23;20070;-79
2022/10/28 04:33:28;;;;;;;15.85;7.40;;;;;;;6.12;66.74;100665.41;6075906;23;20058;-81
2022/10/28 04:35:54;;;;;;;15.88;7.30;;;;;;;6.19;67.12;100682.78;6102767;23;20412;-81
2022/10/28 04:38:20;;;;;;;14.65;7.38;;;;;;;6.02;66.94;100647.09;6105857;23;20026;-82
2022/10/28 04:40:48;;;;;;;13.73;7.05;;;;;;;6.12;67.10;100665.41;6106772;23;20018;-81
2022/10/28 04:43:14;;;;;;;16.67;8.38;;;;;;;6.15;67.09;100680.97;6106937;23;20010;-81
2022/10/28 04:45:41;;;;;;;15.48;7.90;;;;;;;6.10;67.21;100656.72;6081604;23;20026;-80
2022/10/28 04:48:09;;;;;;;13.43;7.15;;;;;;;6.26;67.59;100682.13;6105845;23;20017;-82
2022/10/28 04:50:35;;;;;;;15.30;7.40;;;;;;;6.30;67.22;100686.50;6076300;23;20026;-81
2022/10/28 04:53:09;;;;;;;15.48;7.13;;;;;;;5.84;67.33;100608.75;6051193;23;20093;-82
2022/10/28 04:55:35;;;;;;;18.42;8.02;;;;;;;6.27;67.43;100665.75;6100244;23;20014;-79
2022/10/28 04:58:14;;;;;;;15.02;7.53;;;;;;;6.31;67.07;100659.78;6100147;23;20018;-80
2022/10/28 05:00:42;;;;;;;15.45;7.18;;;;;;;5.61;66.93;100548.84;6028395;23;20018;-81
2022/10/28 05:03:08;;;;;;;16.20;8.10;;;;;;;6.24;66.94;100659.63;6074628;23;20346;-79
2022/10/28 05:05:42;;;;;;;16.92;8.13;;;;;;;6.32;67.67;100677.06;6078825;23;20041;-81
2022/10/28 05:08:15;;;;;;;15.95;8.27;;;;;;;6.33;67.29;100676.22;6059822;23;20028;-82
2022/10/28 05:10:54;;;;;;;;;;;;;;;;;;;;;
2022/10/28 05:13:24;;;;;;;12.93;6.80;;;;;;;6.32;67.24;100673.63;6040320;23;20050;-82
2022/10/28 05:16:04;;;;;;;14.45;7.00;;;;;;;5.63;67.25;100556.59;6066116;23;20018;-82
2022/10/28 05:18:40;;;;;;;12.70;7.25;;;;;;;6.34;67.25;100682.28;6086682;23;20029;-81
2022/10/28 05:21:06;;;;;;;11.75;6.13;;;;;;;5.69;67.48;100573.09;6064625;23;20050;-81
2022/10/28 05:23:42;;;;;;;14.38;6.80;;;;;;;6.30;67.16;100676.16;6112717;23;20156;-81
2022/10/28 05:26:14;;;;;;;12.55;7.13;;;;;;;6.25;67.17;100651.94;6041510;23;20006;-80
2022/10/28 05:28:45;;;;;;;15.10;6.97;;;;;;;6.40;67.56;100695.31;6066175;23;20353;-81
2022/10/28 05:31:13;;;;;;;12.23;6.90;;;;;;;5.83;67.18;100565.69;6041969;23;20022;-83
2022/10/28 05:33:40;;;;;;;10.57;5.72;;;;;;;6.08;67.21;100604.13;6039855;23;20258;-79
2022/10/28 05:36:06;;;;;;;17.67;7.82;;;;;;;5.41;67.22;100484.66;6039797;23;20073;-80
2022/10/28 05:38:32;;;;;;;17.52;6.95;;;;;;;6.63;66.99;100690.69;6086707;23;20015;-81
2022/10/28 05:41:02;;;;;;;16.42;6.45;;;;;;;6.68;67.31;100687.31;6037992;23;20057;-81
2022/10/28 05:43:32;;;;;;;12.07;6.22;;;;;;;5.98;67.51;100549.66;6038011;23;20022;-80
2022/10/28 05:46:42;;;;;;;13.25;6.18;;;;;;;6.88;67.22;100695.47;6023679;23;20031;-81
2022/10/28 05:49:46;;;;;;;12.48;6.50;;;;;;;5.85;67.22;100502.00;6067899;23;20018;-81
2022/10/28 05:52:15;;;;;;;15.32;6.45;;;;;;;6.13;66.98;100556.03;6060880;23;20171;-82
2022/10/28 05:55:04;;;;;;;;;;;;;;;;;;;;;
2022/10/28 05:59:05;;;;;;;12.75;5.85;;;;;;;6.37;66.68;100601.31;6052401;23;20022;-82
2022/10/28 06:01:41;;;;;;;;;;;;;;;6.99;66.63;100675.88;6064162;23;20022;-81
2022/10/28 06:04:08;;;;;;;13.38;6.68;;;;;;;6.11;66.32;100530.16;6072392;23;19968;-81
2022/10/28 06:06:37;;;;;;;11.88;6.25;;;;;;;6.45;66.62;100598.06;6025908;23;20014;-80
2022/10/28 06:12:23;;;;;;;14.73;6.97;;;;;;;6.47;66.70;100608.44;6030826;23;20432;-79
2022/10/28 06:14:49;;;;;;;13.43;6.95;;;;;;;6.73;66.74;100644.31;6042937;23;20018;-82
2022/10/28 06:17:15;;;;;;;13.35;6.57;;;;;;;6.92;66.83;100681.75;6043774;23;20022;-82
2022/10/28 06:19:41;;;;;;;14.65;6.50;;;;;;;6.97;66.89;100681.84;6044450;23;20027;-80
2022/10/28 06:22:09;;;;;;;12.55;6.93;;;;;;;6.98;66.41;100676.72;6068302;23;20030;-79
2022/10/28 06:24:35;;;;;;;14.63;7.00;;;;;;;7.04;66.56;100686.31;6069950;23;20457;-82
2022/10/28 06:27:01;;;;;;;22.77;10.65;;;;;;;6.99;66.59;100662.94;6046505;23;20025;-81
2022/10/28 06:29:27;;;;;;;16.73;7.28;;;;;;;7.08;66.94;100672.59;6077002;23;20015;-80
2022/10/28 06:31:53;;;;;;;16.42;7.32;;;;;;;7.13;66.50;100655.44;6088508;23;20132;-78
2022/10/28 06:34:19;;;;;;;17.25;7.13;;;;;;;7.00;66.40;100614.63;6028335;23;20047;-78
2022/10/28 06:36:45;;;;;;;13.60;7.13;;;;;;;6.88;66.64;100598.03;6091637;23;20051;-80
2022/10/28 06:39:11;;;;;;;14.45;7.40;;;;;;;7.18;66.56;100648.63;6068686;23;20052;-80
2022/10/28 06:41:37;;;;;;;13.13;7.22;;;;;;;7.28;66.10;100661.75;6064156;23;20471;-81
2022/10/28 06:44:24;;;;;;;13.80;7.45;;;;;;;7.13;66.34;100649.38;6041310;23;20034;-81
2022/10/28 06:47:21;;;;;;;13.90;7.03;;;;;;;6.37;66.11;100519.47;6037466;23;20105;-81
2022/10/28 06:49:48;;;;;;;16.67;7.80;;;;;;;6.01;66.23;100477.41;6018348;23;20535;-80
2022/10/28 06:52:14;;;;;;;14.75;7.10;;;;;;;6.33;66.52;100536.63;6043227;23;20019;-81
2022/10/28 06:54:42;;;;;;;15.38;7.50;;;;;;;7.01;66.83;100639.66;6071069;23;20346;-81
2022/10/28 06:57:09;;;;;;;14.20;6.95;;;;;;;7.09;66.75;100628.63;6042656;23;20023;-82
2022/10/28 06:59:36;;;;;;;14.95;7.53;;;;;;;7.05;66.86;100603.53;6067765;23;20025;-81
2022/10/28 07:02:02;;;;;;;15.27;7.40;;;;;;;7.14;66.63;100620.97;6068294;23;20409;-83
2022/10/28 07:04:28;;;;;;;17.38;7.35;;;;;;;7.35;67.36;100640.31;6065954;23;20041;-81
2022/10/28 07:06:56;;;;;;;17.17;7.32;;;;;;;7.34;67.05;100631.66;6065487;23;20021;-80
2022/10/28 07:09:22;;;;;;;15.30;7.10;;;;;;;7.49;66.89;100625.88;6077926;23;20026;-81
2022/10/28 07:11:57;;;;;;;17.08;7.60;;;;;;;7.45;66.48;100597.31;6057010;23;20105;-82
2022/10/28 07:14:25;;;;;;;15.13;7.03;;;;;;;7.33;66.90;100572.94;6043619;23;20368;-80
2022/10/28 07:17:02;;;;;;;16.10;7.40;;;;;;;6.92;66.33;100492.88;6018690;23;20512;-81
2022/10/28 07:19:42;;;;;;;16.88;7.15;;;;;;;7.24;66.00;100540.00;6018296;23;20018;-79
2022/10/28 07:22:08;;;;;;;16.40;7.75;;;;;;;7.99;66.08;100655.16;5994581;23;20023;-81
2022/10/28 07:24:43;;;;;;;16.73;7.45;;;;;;;7.12;66.24;100508.75;6048470;23;20042;-78
2022/10/28 07:27:15;;;;;;;16.05;7.28;;;;;;;7.00;66.05;100501.66;6048634;23;20018;-80
2022/10/28 07:29:42;;;;;;;16.95;7.32;;;;;;;7.69;66.13;100612.38;6043672;23;20018;-82
2022/10/28 07:32:11;;;;;;;17.73;7.45;;;;;;;7.00;65.65;100483.53;6018719;23;20067;-79
2022/10/28 07:34:45;;;;;;;22.05;8.25;;;;;;;6.91;65.85;100454.91;6043237;23;20396;-81
2022/10/28 07:37:12;;;;;;;18.42;7.70;;;;;;;8.00;66.06;100620.63;6017878;23;20019;-78
2022/10/28 07:39:38;;;;;;;18.33;7.53;;;;;;;8.15;65.86;100638.13;6042158;23;20050;-80
2022/10/28 07:42:20;;;;;;;18.95;8.43;;;;;;;8.13;66.03;100622.53;6018222;23;20094;-80
2022/10/28 07:44:53;;;;;;;18.48;8.32;;;;;;;8.27;65.40;100635.69;6043387;23;20077;-80
2022/10/28 07:47:20;;;;;;;16.13;8.55;;;;;;;7.58;65.51;100528.47;6042261;23;20046;-81
2022/10/28 07:49:47;;;;;;;19.85;7.82;;;;;;;7.49;65.70;100486.03;6042349;23;20026;-82
2022/10/28 07:52:15;;;;;;;16.65;7.85;;;;;;;7.97;65.32;100573.94;6018352;23;20018;-80
2022/10/28 07:54:42;;;;;;;19.80;8.75;;;;;;;8.11;65.45;100577.56;6065929;23;20018;-81
2022/10/28 07:57:07;;;;;;;18.25;8.68;;;;;;;8.52;65.74;100612.72;6067839;23;20022;-80
2022/10/28 07:59:36;;;;;;;16.77;7.97;;;;;;;8.80;65.31;100635.53;6020092;23;20453;-83
2022/10/28 08:02:05;;;;;;;19.30;8.85;;;;;;;8.87;65.27;100624.38;6044663;23;20384;-80
2022/10/28 08:04:32;;;;;;;16.38;8.18;;;;;;;8.89;65.22;100610.53;6045011;23;20337;-81
2022/10/28 08:07:00;;;;;;;18.02;8.43;;;;;;;8.42;65.46;100513.13;6024737;23;20086;-81
2022/10/28 08:09:26;;;;;;;17.10;8.30;;;;;;;9.02;64.78;100606.34;6044662;23;20015;-79
2022/10/28 08:11:56;;;;;;;15.13;8.20;;;;;;;8.91;65.01;100586.34;6020609;23;20042;-80
2022/10/28 08:14:22;;;;;;;16.80;7.72;;;;;;;8.82;64.41;100554.25;6021257;23;20105;-81
2022/10/28 08:16:49;;;;;;;16.08;8.15;;;;;;;8.54;64.15;100503.78;6045286;23;20019;-81
2022/10/28 08:19:19;;;;;;;18.77;9.77;;;;;;;8.23;64.30;100449.81;6069039;23;20025;-82
2022/10/28 08:21:46;;;;;;;18.92;7.93;;;;;;;9.16;63.95;100614.28;6046828;23;20019;-83
2022/10/28 08:24:25;;;;;;;24.80;9.35;;;;;;;9.21;64.22;100627.31;6022661;23;20058;-81
2022/10/28 08:26:54;;;;;;;14.35;7.95;;;;;;;8.45;64.25;100509.69;6075073;23;20021;-82
2022/10/28 08:29:23;;;;;;;19.98;9.68;;;;;;;9.21;64.20;100629.06;6057039;23;20681;-81
2022/10/28 08:32:48;;;;;;;;;;;;;;;;;;;;;
2022/10/28 08:35:14;;;;;;;19.00;11.48;;;;;;;8.33;63.53;100457.72;6044247;23;20059;-80
2022/10/28 08:37:44;;;;;;;17.65;9.70;;;;;;;9.19;63.81;100571.88;6045864;23;20019;-81
2022/10/28 08:40:12;;;;;;;22.63;11.70;;;;;;;9.08;64.22;100547.56;6046016;23;20019;-81
2022/10/28 08:43:01;;;;;;;22.15;9.18;;;;;;;9.20;63.91;100521.69;6047246;23;20019;-82
2022/10/28 08:46:06;;;;;;;15.98;8.43;;;;;;;9.96;63.82;100615.78;6073889;23;20022;-80
2022/10/28 08:48:36;;;;;;;13.95;7.40;;;;;;;10.00;63.51;100593.31;6000971;23;20081;-81
2022/10/28 08:51:13;;;;;;;17.33;7.53;;;;;;;10.12;63.04;100603.75;6049217;23;20019;-80
2022/10/28 08:53:53;;;;;;;17.10;10.13;;;;;;;10.20;63.04;100611.59;6048994;23;20474;-82
2022/10/28 08:56:57;;;;;;;16.63;8.80;;;;;;;10.15;63.08;100611.59;6072708;23;20023;-80
2022/10/28 08:59:31;;;;;;;11.73;7.15;;;;;;;9.92;62.90;100606.25;5930174;24;20054;-81
2022/10/28 09:02:02;;;;;;;10.88;6.63;;;;;;;9.70;62.78;100581.84;6028687;23;20057;-81
2022/10/28 09:04:38;;;;;;;12.63;6.53;;;;;;;9.87;62.93;100616.59;6072728;23;20018;-80
2022/10/28 09:07:10;;;;;;;13.70;6.78;;;;;;;9.83;63.46;100601.84;6022558;23;20027;-79
2022/10/28 09:09:37;;;;;;;14.25;7.72;;;;;;;9.87;63.18;100608.81;6075924;23;20023;-81
2022/10/28 09:12:30;;;;;;;13.75;7.70;;;;;;;9.74;63.30;100573.19;6040630;23;20081;-80
2022/10/28 09:15:17;;;;;;;16.38;8.38;;;;;;;9.99;63.29;100599.38;6067437;23;20015;-80
2022/10/28 09:18:32;;;;;;;15.57;8.07;;;;;;;9.93;62.93;100595.00;6041916;23;20022;-81
2022/10/28 09:21:04;;;;;;;13.98;8.20;;;;;;;10.04;63.16;100593.31;6047402;23;20019;-80
2022/10/28 09:23:45;;;;;;;12.98;8.00;;;;;;;10.20;63.01;100583.00;6066183;23;20038;-81
2022/10/28 09:26:59;;;;;;;18.23;8.73;;;;;;;10.42;62.98;100585.72;6075265;23;20077;-80
2022/10/28 09:29:41;;;;;;;13.48;7.43;;;;;;;10.35;63.05;100569.19;6017145;23;20030;-81
2022/10/28 09:32:35;;;;;;;15.25;8.10;;;;;;;10.45;62.90;100565.81;6080698;23;20066;-80
2022/10/28 09:35:25;;;;;;;13.95;8.30;;;;;;;10.66;63.28;100553.75;6053146;23;20485;-81
2022/10/28 09:38:29;;;;;;;14.23;7.82;;;;;;;10.06;62.41;100465.91;6069290;23;20018;-83
2022/10/28 09:41:15;;;;;;;13.75;8.18;;;;;;;10.34;62.47;100521.53;6020285;23;20405;-82
2022/10/28 09:43:49;;;;;;;15.30;8.65;;;;;;;10.72;62.41;100563.28;6020813;23;20475;-83
2022/10/28 09:47:43;;;;;;;19.17;8.38;;;;;;;10.88;62.45;100559.84;6021538;23;20022;-80
2022/10/28 09:50:06;;;;;;;11.65;7.72;;;;;;;10.92;62.62;100488.69;6050656;23;20117;-82
2022/10/28 09:53:11;;;;;;;16.48;7.90;;;;;;;10.81;61.90;100454.84;6026366;23;20054;-84
2022/10/28 09:56:16;;;;;;;14.95;7.82;;;;;;;10.92;61.25;100430.56;6046593;23;20345;-83
2022/10/28 09:59:02;;;;;;;15.30;7.63;;;;;;;11.23;61.08;100459.16;6071534;23;20054;-83
2022/10/28 10:01:45;;;;;;;10.98;7.68;;;;;;;11.91;61.15;100563.31;6031939;23;20047;-82
2022/10/28 10:04:20;;;;;;;15.52;7.22;;;;;;;10.90;60.79;100356.78;6034166;23;20090;-84
2022/10/28 10:06:56;;;;;;;;;;;;;;;12.30;60.95;100532.78;6037361;23;20031;-85
2022/10/28 10:09:43;;;;;;;13.02;7.63;;;;;;;12.08;60.20;100409.41;6053107;23;19995;-88
2022/10/28 10:12:13;;;;;;;13.85;7.90;;;;;;;12.28;59.70;100418.88;6047716;23;20027;-83
2022/10/28 10:15:43;;;;;;;12.85;7.13;;;;;;;12.62;58.28;100513.50;6028324;23;20022;-82
2022/10/28 10:18:48;;;;;;;13.13;7.50;;;;;;;12.60;59.14;100525.69;6068682;23;20066;-82
2022/10/28 10:21:20;;;;;;;16.70;7.30;;;;;;;12.19;58.58;100440.66;6064797;23;20027;-82
2022/10/28 10:23:49;;;;;;;9.88;6.88;;;;;;;12.44;58.50;100496.19;6081905;23;20029;-81
2022/10/28 10:26:17;;;;;;;10.77;7.10;;;;;;;12.45;58.92;100458.78;6051701;23;20372;-85
2022/10/28 10:28:50;;;;;;;14.73;7.68;;;;;;;12.41;58.25;100435.31;6078852;23;20082;-80
2022/10/28 10:31:31;;;;;;;12.02;7.55;;;;;;;12.83;57.87;100497.69;6078106;23;20405;-81
2022/10/28 10:35:02;;;;;;;14.68;7.32;;;;;;;12.76;57.77;100499.47;6026831;23;20038;-81
2022/10/28 10:38:06;;;;;;;13.27;7.75;;;;;;;12.85;57.76;100511.59;6047602;23;20360;-81
2022/10/28 10:40:46;;;;;;;;;;;;;;;;;;;;;
2022/10/28 10:43:16;;;;;;;14.85;7.13;;;;;;;12.70;57.95;100515.16;6048489;23;20018;-80
2022/10/28 10:46:39;;;;;;;11.65;7.05;;;;;;;12.56;57.48;100513.53;6050023;23;20019;-81
2022/10/28 10:49:35;;;;;;;12.85;7.03;;;;;;;12.44;58.19;100508.38;5913637;24;20027;-79
2022/10/28 10:52:19;;;;;;;;;;;;;;;12.43;57.95;100501.44;6074497;23;20436;-80
2022/10/28 10:55:01;;;;;;;11.23;7.38;;;;;;;12.33;57.66;100509.28;6075651;23;19921;-81
2022/10/28 10:57:41;;;;;;;;;;;;;;;;;;;;;
2022/10/28 11:00:29;;;;;;;10.60;6.38;;;;;;;12.14;57.84;100502.41;6049834;23;20101;-82
2022/10/28 11:03:08;;;;;;;9.55;6.55;;;;;;;11.90;57.55;100465.09;6050239;23;20029;-81
2022/10/28 11:05:34;;;;;;;13.15;7.22;;;;;;;11.69;58.03;100463.44;6047084;23;20038;-78
2022/10/28 11:08:05;;;;;;;11.88;6.45;;;;;;;11.86;58.04;100492.03;6047118;23;20029;-80
2022/10/28 11:11:04;;;;;;;12.75;6.43;;;;;;;11.23;58.29;100404.47;6024940;23;20428;-81
2022/10/28 11:13:32;;;;;;;9.27;6.07;;;;;;;11.52;58.46;100463.47;6078950;23;20022;-80
2022/10/28 11:16:00;;;;;;;12.13;5.95;;;;;;;11.11;58.84;100411.44;6103626;23;20018;-81
2022/10/28 11:18:30;;;;;;;8.57;5.60;;;;;;;11.17;59.26;100417.50;6105762;23;20360;-80
2022/10/28 11:21:10;;;;;;;10.05;5.70;;;;;;;10.39;58.93;100309.06;6078253;23;20534;-81
2022/10/28 11:24:27;;;;;;;9.82;6.05;;;;;;;11.62;59.23;100485.16;6107762;23;20105;-82
2022/10/28 11:27:35;;;;;;;9.98;6.00;;;;;;;11.57;59.12;100483.44;6045327;23;20014;-83
2022/10/28 11:30:21;;;;;;;8.63;5.57;;;;;;;10.60;59.35;100341.16;6087938;23;20026;-81
2022/10/28 11:33:00;;;;;;;13.15;6.78;;;;;;;11.52;58.99;100479.97;6112130;23;20029;-83
2022/10/28 11:35:49;;;;;;;11.52;5.90;;;;;;;11.50;59.38;100483.47;6066863;23;20023;-82
2022/10/28 11:43:33;;;;;;;8.77;5.10;;;;;;;10.07;59.63;100296.91;6096699;23;20123;-83
2022/10/28 11:46:39;;;;;;;9.73;5.50;;;;;;;11.18;59.88;100481.75;5973254;24;20076;-85
2022/10/28 11:49:26;;;;;;;10.88;5.50;;;;;;;10.06;59.71;100282.16;5998076;24;20035;-81
2022/10/28 11:52:15;;;;;;;10.43;5.32;;;;;;;10.33;59.94;100336.81;6089365;23;20017;-79
2022/10/28 11:55:25;;;;;;;11.30;5.53;;;;;;;11.22;59.77;100465.25;6122094;23;20009;-80
2022/10/28 11:58:35;;;;;;;9.30;5.10;;;;;;;11.20;59.71;100466.97;6096245;23;20038;-81
2022/10/28 12:01:07;;;;;;;9.90;4.85;;;;;;;11.21;60.21;100466.13;6094634;23;20002;-80
2022/10/28 12:04:00;;;;;;;10.18;5.00;;;;;;;11.19;60.27;100466.13;6122660;23;20014;-80
2022/10/28 12:06:51;;;;;;;7.45;5.28;;;;;;;11.21;60.25;100468.72;6072967;23;20014;-81
2022/10/28 12:09:55;;;;;;;10.48;5.18;;;;;;;10.60;60.11;100366.34;6091239;23;20046;-81
2022/10/28 12:12:33;;;;;;;9.27;5.13;;;;;;;11.18;60.03;100466.09;6100709;23;20109;-83
2022/10/28 12:15:17;;;;;;;9.85;5.03;;;;;;;11.10;60.65;100459.19;6124027;23;20021;-81
2022/10/28 12:17:59;;;;;;;10.18;5.03;;;;;;;11.03;60.46;100439.22;6125638;23;20013;-80
2022/10/28 12:20:49;;;;;;;8.75;4.85;;;;;;;11.14;60.31;100458.28;6125765;23;20073;-80